Latest Weather Observations for Esperance

IDW60801

Issued at 4:35 pm WST Thursday 28 August 2014 (issued every 30 minutes, with the page automatically refreshed every 10 minutes)

About weather observations | Map of weather stations | Latest weather observations for WA | Other Formats
Station Details ID: 009789 Name: ESPERANCE Lat: -33.83 Lon: 121.89 Height: 25.0 m
Data from the previous 72 hours. | See also: Recent months at Esperance
Date/Time
WST
Temp
°C
App
Temp
°C
Dew
Point
Rel
Hum
%
Delta-T
°C
Wind Press
QNH
hPa
Press
MSL
hPa
Rain
since 9 am
mm
Dir
 
Spd
km/h
Gust
km/h
Spd
kts
Gust
kts
28/04:00pm 23.2 21.4 9.6 42 7.4 SSW 9 11 5 6 1013.7 1013.7 0.0
28/03:30pm 24.9 22.2 7.2 32 9.3 SW 11 19 6 10 1013.6 1013.6 0.0
28/03:00pm 26.2 23.4 7.1 29 10.1 WSW 11 17 6 9 1013.5 1013.5 0.0
28/02:30pm 27.1 23.7 7.7 29 10.4 W 15 26 8 14 1013.5 1013.5 0.0
28/02:00pm 27.7 23.8 7.3 27 10.9 WNW 17 22 9 12 1013.6 1013.6 0.0
28/01:30pm 27.8 23.0 7.2 27 11.0 NW 22 32 12 17 1013.7 1013.7 0.0
28/01:00pm 28.0 23.2 5.7 24 11.6 NW 20 33 11 18 1013.8 1013.8 0.0
28/12:30pm 27.5 23.1 6.7 26 11.0 NNW 19 26 10 14 1014.3 1014.3 0.0
28/12:00pm 25.7 20.4 6.8 30 9.9 NNW 24 33 13 18 1014.8 1014.8 0.0
28/11:30am 25.4 21.5 8.8 35 9.0 NNW 19 26 10 14 1015.5 1015.4 0.0
28/11:00am 24.6 22.1 9.8 39 8.1 NNW 13 22 7 12 1016.1 1016.1 0.0
28/10:30am 22.7 21.8 12.5 52 5.8 N 9 13 5 7 1016.5 1016.5 0.0
28/10:00am 21.0 20.5 12.7 59 4.7 N 7 9 4 5 1017.1 1017.1 0.0
28/09:30am 19.8 19.4 12.3 62 4.2 NW 6 7 3 4 1017.2 1017.2 0.0
28/09:00am 18.3 17.8 12.2 67 3.4 NW 6 7 3 4 1017.4 1017.4 0.0
28/08:30am 17.4 17.1 11.5 68 3.2 NNW 4 7 2 4 1017.5 1017.5 -
28/08:00am 15.4 14.0 10.9 74 2.4 N 9 11 5 6 1017.3 1017.3 -
28/07:30am 14.2 13.4 11.2 82 1.6 N 6 9 3 5 1017.6 1017.6 0.0
28/07:00am 12.8 11.6 10.3 85 1.3 W 7 11 4 6 1017.7 1017.7 0.0
28/06:30am 13.6 11.9 9.9 78 1.9 W 9 13 5 7 1017.4 1017.4 0.0
28/06:00am 13.7 12.1 10.2 79 1.8 WNW 9 15 5 8 1017.5 1017.5 0.0
28/05:30am 13.6 12.0 10.1 79 1.8 NNW 9 13 5 7 1017.1 1017.1 0.0
28/05:00am 13.4 11.7 9.9 79 1.8 N 9 13 5 7 1017.0 1017.0 0.0
28/04:30am 14.4 13.0 9.5 72 2.5 WNW 7 9 4 5 1016.8 1016.8 0.0
28/04:00am 14.6 12.7 10.4 76 2.2 N 11 13 6 7 1016.9 1016.9 0.0
28/03:30am 15.4 14.0 9.4 67 3.1 NW 7 9 4 5 1017.0 1017.0 0.0
28/03:00am 15.8 14.5 9.2 65 3.4 WNW 6 9 3 5 1016.7 1016.7 0.0
28/02:30am 16.6 14.3 9.0 61 3.9 WNW 11 15 6 8 1016.5 1016.5 0.0
28/02:00am 17.2 13.3 8.6 57 4.4 NW 19 22 10 12 1016.8 1016.8 0.0
28/01:30am 16.9 13.0 8.7 58 4.2 NW 19 24 10 13 1017.2 1017.2 0.0
28/01:00am 16.6 13.1 8.6 59 4.1 W 17 22 9 12 1017.5 1017.5 0.0
28/12:30am 19.3 16.7 9.2 52 5.3 N 13 20 7 11 1017.3 1017.3 0.0
28/12:00am 19.1 16.1 7.8 48 5.8 N 13 20 7 11 1017.3 1017.3 0.0
 
Date/Time
WST
Temp
°C
App
Temp
°C
Dew
Point
Rel
Hum
%
Delta-T
°C
Wind Press
QNH
hPa
Press
MSL
hPa
Rain
since 9 am
mm
Dir
 
Spd
km/h
Gust
km/h
Spd
kts
Gust
kts
27/11:30pm 17.5 14.9 7.8 53 4.9 NNW 11 19 6 10 1017.7 1017.7 0.0
27/11:00pm 16.2 14.9 9.2 63 3.6 N 6 7 3 4 1017.8 1017.8 0.0
27/10:30pm 16.2 14.5 9.7 65 3.4 N 9 15 5 8 1018.5 1018.5 0.0
27/10:00pm 17.2 14.8 10.2 63 3.7 N 13 20 7 11 1018.6 1018.6 0.0
27/09:30pm 17.1 15.6 10.7 66 3.4 E 9 11 5 6 1018.5 1018.5 0.0
27/09:00pm 17.9 15.7 10.8 63 3.8 NE 13 17 7 9 1018.6 1018.6 0.0
27/08:30pm 17.9 16.6 11.3 65 3.6 NNE 9 11 5 6 1018.9 1018.9 0.0
27/08:00pm 17.9 16.1 10.8 63 3.8 NNE 11 13 6 7 1018.9 1018.9 0.0
27/07:30pm 17.6 17.1 13.9 79 2.1 N 9 13 5 7 1018.7 1018.7 0.0
27/07:06pm 17.8 19.2 14.5 81 1.9 CALM 0 4 0 2 1018.5 1018.5 0.0
27/07:00pm 17.7 19.3 14.8 83 1.7 CALM 0 0 0 0 1018.5 1018.5 0.0
27/06:39pm 17.5 18.9 14.4 82 1.8 CALM 0 0 0 0 1018.4 1018.4 0.0
27/06:30pm 17.6 19.0 14.5 82 1.8 CALM 0 6 0 3 1018.2 1018.2 0.0
27/06:00pm 17.9 17.5 14.2 79 2.1 E 9 11 5 6 1018.0 1018.0 0.0
27/05:30pm 17.8 17.2 14.5 81 1.9 ESE 11 15 6 8 1018.0 1018.0 0.0
27/05:00pm 17.8 16.3 14.3 80 2.0 ESE 15 20 8 11 1018.1 1018.1 0.0
27/04:30pm 18.3 16.3 13.9 75 2.5 ESE 17 20 9 11 1018.3 1018.3 0.0
27/04:00pm 19.0 16.6 13.9 72 2.9 ESE 19 26 10 14 1018.5 1018.5 0.0
27/03:30pm 20.5 18.4 13.7 65 3.9 ESE 17 24 9 13 1018.5 1018.5 0.0
27/03:00pm 24.5 23.0 10.4 41 7.8 NE 9 17 5 9 1018.8 1018.8 0.0
27/02:30pm 24.2 21.5 10.2 41 7.7 NE 15 22 8 12 1019.1 1019.1 0.0
27/02:00pm 23.5 21.4 11.1 45 6.9 NE 13 22 7 12 1019.5 1019.5 0.0
27/01:30pm 23.1 21.4 11.3 47 6.6 NE 11 20 6 11 1020.2 1020.2 0.0
27/01:00pm 22.4 19.9 11.2 49 6.2 NNE 15 22 8 12 1020.7 1020.7 0.0
27/12:30pm 20.6 17.7 10.9 53 5.3 NNE 17 28 9 15 1021.4 1021.4 0.0
27/12:00pm 19.8 17.3 11.2 57 4.7 NNE 15 24 8 13 1022.1 1022.1 0.0
27/11:30am 20.1 17.6 11.1 56 4.9 NE 15 30 8 16 1022.7 1022.7 0.0
27/11:00am 18.6 15.0 10.6 59 4.3 NNE 20 28 11 15 1023.5 1023.5 0.0
27/10:30am 18.2 14.7 10.3 60 4.2 NNE 19 26 10 14 1024.0 1024.0 0.0
27/10:00am 17.4 13.8 10.0 62 3.9 NNE 19 26 10 14 1024.4 1024.4 0.0
27/09:30am 17.6 14.1 10.2 62 3.9 NNE 19 32 10 17 1024.7 1024.7 0.0
27/09:00am 16.8 13.6 9.9 64 3.6 NE 17 24 9 13 1025.0 1025.0 0.0
27/08:30am 15.8 12.8 10.7 71 2.7 NNE 17 24 9 13 1025.1 1025.1 0.0
27/08:00am 15.2 12.7 11.1 76 2.2 NE 15 22 8 12 1025.1 1025.1 0.0
27/07:30am 14.0 11.9 11.0 82 1.6 NE 13 19 7 10 1025.1 1025.1 0.0
27/07:00am 13.2 11.0 10.9 86 1.2 NNE 13 19 7 10 1025.0 1025.0 0.0
27/06:30am 12.9 11.9 11.0 88 1.0 ENE 7 11 4 6 1024.8 1024.8 0.0
27/06:00am 12.9 12.0 11.2 89 0.9 ENE 7 9 4 5 1024.6 1024.6 0.0
27/05:30am 13.0 12.1 11.3 89 0.9 NE 7 11 4 6 1024.6 1024.6 0.0
27/05:00am 13.0 11.7 11.3 89 0.9 E 9 13 5 7 1024.7 1024.7 0.0
27/04:30am 13.4 12.0 10.9 85 1.3 E 9 17 5 9 1024.8 1024.8 0.0
27/04:00am 13.6 12.1 10.7 82 1.5 E 9 13 5 7 1024.8 1024.8 0.0
27/03:30am 13.9 12.2 11.2 84 1.4 E 11 17 6 9 1024.7 1024.7 0.0
27/03:00am 14.4 13.0 11.0 80 1.8 E 9 15 5 8 1024.7 1024.7 0.0
27/02:30am 14.3 11.4 10.9 80 1.8 ESE 17 26 9 14 1024.7 1024.7 0.0
27/02:00am 14.5 12.8 11.1 80 1.8 E 11 17 6 9 1024.9 1024.9 0.0
27/01:30am 14.3 12.8 10.7 79 1.9 E 9 17 5 9 1025.0 1025.0 0.0
27/01:00am 14.3 13.1 10.3 77 2.1 ENE 7 11 4 6 1025.2 1025.2 0.0
27/12:30am 14.5 12.9 10.1 75 2.3 E 9 13 5 7 1025.3 1025.3 0.0
27/12:00am 14.9 13.3 10.3 74 2.4 E 9 15 5 8 1025.4 1025.4 0.0
 
Date/Time
WST
Temp
°C
App
Temp
°C
Dew
Point
Rel
Hum
%
Delta-T
°C
Wind Press
QNH
hPa
Press
MSL
hPa
Rain
since 9 am
mm
Dir
 
Spd
km/h
Gust
km/h
Spd
kts
Gust
kts
26/11:30pm 15.3 12.1 10.1 71 2.7 ESE 17 22 9 12 1025.5 1025.5 0.0
26/11:00pm 15.3 11.8 10.3 72 2.6 SE 19 24 10 13 1025.4 1025.4 0.0
26/10:30pm 15.5 12.2 9.7 68 3.0 SE 17 22 9 12 1025.6 1025.6 0.0
26/10:00pm 15.7 12.5 9.9 68 3.0 SSE 17 22 9 12 1025.5 1025.5 0.0
26/09:30pm 15.5 12.9 9.3 66 3.2 SSE 13 17 7 9 1025.7 1025.7 0.0
26/09:00pm 15.6 11.8 8.9 64 3.4 SSE 19 24 10 13 1025.6 1025.6 0.0
26/08:30pm 15.7 12.3 9.0 64 3.4 SSE 17 26 9 14 1025.5 1025.5 0.0
26/08:00pm 15.7 12.6 9.0 64 3.4 SSE 15 20 8 11 1025.4 1025.4 0.0
26/07:30pm 15.7 12.7 9.3 65 3.3 SSE 15 22 8 12 1025.2 1025.2 0.0
26/07:00pm 15.7 12.3 9.3 65 3.3 S 17 22 9 12 1025.1 1025.1 0.0
26/06:30pm 15.7 12.6 9.0 64 3.4 S 15 20 8 11 1024.7 1024.7 0.0
26/06:00pm 15.7 12.6 9.0 64 3.4 S 15 24 8 13 1024.4 1024.4 0.0
26/05:30pm 15.8 13.4 10.1 69 3.0 S 13 19 7 10 1024.1 1024.1 0.0
26/05:00pm 15.8 12.4 10.7 71 2.7 S 19 28 10 15 1023.8 1023.8 0.0
26/04:30pm 15.9 12.5 11.2 73 2.5 S 20 32 11 17 1023.5 1023.5 0.0
26/04:00pm 16.3 12.4 9.3 63 3.6 S 20 30 11 16 1023.2 1023.2 0.0
26/03:30pm 16.6 12.8 9.7 63 3.6 S 20 26 11 14 1023.0 1023.0 0.0
26/03:00pm 16.6 12.8 9.9 64 3.5 SSW 20 30 11 16 1022.7 1022.7 0.0
26/02:30pm 16.4 12.4 11.8 74 2.5 S 24 37 13 20 1022.5 1022.5 0.0
26/02:17pm 16.7 12.7 11.9 73 2.6 S 24 33 13 18 1022.3 1022.3 0.0
26/02:00pm 17.2 13.6 11.9 71 2.9 S 22 35 12 19 1022.4 1022.4 0.0
26/01:30pm 17.0 12.7 13.1 78 2.2 S 28 41 15 22 1022.0 1022.0 0.0
26/01:11pm 17.9 14.2 14.0 78 2.2 SSW 26 41 14 22 1021.9 1021.9 0.0
26/01:00pm 18.1 14.5 14.1 77 2.3 SSW 26 41 14 22 1022.0 1022.0 0.0
26/12:30pm 19.0 14.7 13.1 68 3.3 SW 28 44 15 24 1022.0 1022.0 0.0
26/12:00pm 19.5 14.8 12.1 62 4.1 WSW 28 41 15 22 1022.0 1022.0 0.0
26/11:30am 20.7 16.7 11.9 57 4.9 WSW 24 35 13 19 1021.8 1021.8 0.0
26/11:00am 20.3 16.2 11.6 57 4.8 WSW 24 35 13 19 1021.7 1021.7 0.0
26/10:30am 21.7 19.0 11.6 52 5.6 W 17 26 9 14 1021.6 1021.6 0.0
26/10:00am 19.7 17.5 10.9 57 4.8 WNW 13 19 7 10 1021.4 1021.4 0.0
26/09:30am 19.0 16.6 10.0 56 4.8 NW 13 17 7 9 1021.4 1021.4 0.0
26/09:00am 18.7 16.0 9.1 53 5.0 NW 13 19 7 10 1021.5 1021.5 0.0
26/08:30am 17.9 15.3 9.3 57 4.5 NW 13 17 7 9 1021.3 1021.3 0.0
26/08:00am 15.9 13.4 8.4 61 3.8 NNW 11 15 6 8 1021.0 1021.0 0.0
26/07:30am 14.5 11.5 7.8 64 3.3 NW 13 15 7 8 1020.7 1020.7 0.0
26/07:00am 13.1 10.6 8.3 72 2.4 NW 11 13 6 7 1020.3 1020.3 0.0
26/06:30am 13.1 9.7 7.6 69 2.7 WNW 15 19 8 10 1020.1 1020.1 0.0
26/06:00am 13.7 11.1 7.6 66 3.0 WNW 11 15 6 8 1019.9 1019.9 0.0
26/05:30am 13.1 10.9 8.0 71 2.5 NNW 9 13 5 7 1019.7 1019.7 0.0
26/05:00am 13.0 10.8 7.9 71 2.5 N 9 11 5 6 1019.4 1019.4 0.0
26/04:30am 13.3 11.0 7.3 67 2.9 N 9 11 5 6 1019.2 1019.2 0.0
26/04:00am 13.7 11.0 7.3 65 3.1 N 11 13 6 7 1019.1 1019.1 0.0
26/03:30am 14.0 11.7 7.5 65 3.2 N 9 11 5 6 1018.9 1018.9 0.0
26/03:00am 13.3 11.2 8.3 72 2.5 N 9 11 5 6 1018.8 1018.8 0.0
26/02:30am 14.0 11.3 7.2 63 3.3 N 11 13 6 7 1019.0 1019.0 0.0
26/02:00am 14.3 11.5 7.1 62 3.5 N 11 13 6 7 1019.0 1019.0 0.0
26/01:30am 14.3 11.7 7.8 65 3.2 N 11 13 6 7 1019.3 1019.3 0.0
26/01:00am 14.5 12.8 8.3 66 3.1 N 7 9 4 5 1019.5 1019.5 0.0
26/12:30am 14.4 13.3 10.6 78 2.0 NNW 7 7 4 4 1019.7 1019.7 0.0
26/12:00am 14.5 12.7 10.7 78 2.0 NW 11 13 6 7 1020.0 1020.0 0.0
 
Date/Time
WST
Temp
°C
App
Temp
°C
Dew
Point
Rel
Hum
%
Delta-T
°C
Wind Press
QNH
hPa
Press
MSL
hPa
Rain
since 9 am
mm
Dir
 
Spd
km/h
Gust
km/h
Spd
kts
Gust
kts
25/11:30pm 13.8 12.3 10.7 81 1.6 N 9 11 5 6 1020.1 1020.1 0.0
25/11:00pm 14.1 13.0 10.0 76 2.1 N 6 13 3 7 1020.0 1020.0 0.0
25/10:30pm 14.3 12.5 10.7 79 1.9 N 11 15 6 8 1019.8 1019.8 0.0
25/10:00pm 14.5 12.3 10.9 79 1.9 N 13 17 7 9 1019.9 1019.9 0.0
25/09:30pm 13.8 12.6 11.5 86 1.2 N 9 15 5 8 1020.0 1020.0 0.0
25/09:00pm 14.4 13.3 11.8 84 1.4 NE 9 13 5 7 1019.9 1019.9 0.0
25/08:30pm 15.3 14.5 11.8 79 1.9 NNE 7 9 4 5 1020.2 1020.2 0.0
25/08:00pm 16.0 15.3 12.1 77 2.1 NNE 7 11 4 6 1020.2 1020.2 0.0
25/07:30pm 15.5 15.1 13.0 85 1.4 NNE 7 11 4 6 1020.3 1020.3 0.0
25/07:00pm 16.8 16.3 12.6 76 2.3 ENE 7 9 4 5 1020.0 1020.0 0.0
25/06:30pm 17.2 16.4 12.9 76 2.4 ESE 9 13 5 7 1019.8 1019.8 0.0
25/06:00pm 17.6 17.4 13.7 78 2.2 ESE 7 9 4 5 1019.5 1019.5 0.0
25/05:30pm 18.5 18.8 13.4 72 2.9 ENE 4 7 2 4 1019.4 1019.4 0.0
25/05:00pm 18.9 18.8 13.4 70 3.1 ESE 6 9 3 5 1019.2 1019.2 0.0

Other Formats:

Comma delimited format used in spreadsheet applications
http://www.bom.gov.au/fwo/IDW60801/IDW60801.94638.axf

JavaScript Object Notation format (JSON) in row-major order
http://www.bom.gov.au/fwo/IDW60801/IDW60801.94638.json